ProRodeoTv.Com
Red

PRCA Stock Statistics

SEARCH BY:
Stock Rodeo Contestant Stock Contractor

Brett Custer

EVENT:
Unofficial results reflect placement at time of Web posting and can change.

SEASON BREAKDOWN

Season Attempts Qual Rides Re-rides Ride %
2018 55 17 0 30.91 %
2017 62 13 0 20.97 %
Totals 117 30 0 0.00 %

RODEO DETAIL

Date Location Rodeo SC Brand Ride Comments Stock Score Contestant Score
6/15/2018 North Platte, NE Buffalo Bill Rodeo BU 205B/C 0.00 21.00 / 21.00 0.00 / 0.00
6/15/2018 Reno, NV Reno Rodeo ST 201 0.00 22.50 / 21.50 0.00 / 0.00
6/13/2018 Silver City, NM Wild, Wild West ProRodeo HL L22 0.00 20.50 / 19.00 0.00 / 0.00
6/9/2018 Ponca City, OK 101 Wild West Rodeo AN T11 84.50 21.00 / 20.00 22.00 / 21.50
6/8/2018 Woodward, OK Woodward Elks Rodeo BU 308 0.00 21.00 / 21.50 0.00 / 0.00
6/7/2018 Coleman, TX Coleman PRCA Rodeo SH 0104 0.00 21.00 / 20.00 0.00 / 0.00
6/6/2018 Gladewater, TX Gladewater Round-Up Xtreme Bulls RG 307 87.00 22.50 / 21.00 21.00 / 22.50
6/5/2018 Weatherford, TX Parker County Sheriff s Posse Xtreme Bulls UR 1472 0.00 21.50 / 21.50 0.00 / 0.00
6/3/2018 Elizabeth, CO Elizabeth Stampede Rodeo 73.00 18.00 / 18.00 19.00 / 18.00
6/2/2018 Strong City, KS Flint Hills Rodeo CC 712 0.00 19.00 / 21.00 0.00 / 0.00
6/1/2018 Elizabeth, CO Elizabeth Stampede Xtreme Bulls SR 288 86.50 21.00 / 21.00 23.00 / 21.50
5/29/2018 Fort Smith, AR Old Fort Days Rodeo AN 300 80.50 21.00 / 19.00 20.50 / 20.00
5/27/2018 Bandera, TX Bandera Pro Rodeo RG 1314 76.00 19.00 / 18.00 20.00 / 19.00
5/25/2018 Claremore, OK Will Rogers Stampede PC 329 0.00 20.00 / 21.00 0.00 / 0.00
5/24/2018 Garden City, KS Beef Empire Days PRCA Rodeo KR 208 0.00 17.00 / 20.00 0.00 / 0.00
5/16/2018 Redding, CA Redding Rodeo TB 416 0.00 19.00 / 19.00 0.00 / 0.00
5/15/2018 Redding, CA Redding Extreme Bulls TB 242 0.00 21.00 / 20.50 0.00 / 0.00
5/12/2018 Crockett, TX Crockett Lions Club PRCA Rodeo AN F22 0.00 21.00 / 20.50 0.00 / 0.00
5/11/2018 Perkins, OK Grey Snow Annual Rodeo DK 312 0.00 20.00 / 21.50 0.00 / 0.00
5/10/2018 Mineral Wells, TX Mineral Wells Rodeo RG 213 84.50 20.50 / 20.50 21.00 / 22.50
5/6/2018 Guymon, OK Guymon Pioneer Days Rodeo LJ 335 84.00 21.00 / 20.00 21.50 / 21.50
5/4/2018 Carthage, TX Panola County Cattlemen s Rodeo HL 120 0.00 21.00 / 20.50 0.00 / 0.00
5/3/2018 Helotes, TX Helotes Festival Association Rodeo AN Y58 80.50 20.50 / 19.00 21.00 / 20.00
4/28/2018 Jourdanton, TX Ropin Dreams Cowboy Fellowship PRCA Rodeo UP 222 83.50 20.50 / 21.00 21.00 / 21.00
4/27/2018 Del Rio, TX 41st George Paul Memorial Extreme Bull Riding RG -312 0.00 22.00 / 21.00 0.00 / 0.00
Page of 3
Per Page
 
 
 
Official Sponsors of the Professional Rodeo Cowboys Association MGM Grand Polaris Ranger
Copyright © 2018 Professional Rodeo Cowboys Association. All rights reserved. No portion of ProRodeo.com may be duplicated, redistributed or manipulated in any form. By accessing any information beyond this page, you agree to abide by the Terms of Use.
PRCA Wrangler National Finals Rodeo Wrangler ProRodeo Tour Finale Presented by Justin Boots Xtreme Bulls RAM National Circuit Finals Rodeo ProRodeo Gear ProRodeo Tour